Time;durP1;ratioP1;P1;durP2;ratioP2;P2;SDS_P1;SDS_P2;PMS_P1;PMS_P2;Temp;Humidity;BMP_temperature;BMP_pressure;BME280_temperature;BME280_humidity;BME280_pressure;Samples;Min_cycle;Max_cycle;Signal;HPM_P1;HPM_P2
2024/02/03 00:00:55;;;;;;;;;;;;;;;19.92;42.70;101251.41;2085628;28;6043;-64
2024/02/03 00:01:57;;;;;;;;;;;;;;;19.93;42.66;101261.56;2087976;28;1716;-64
2024/02/03 00:02:58;;;;;;;;;;;;;;;19.93;42.71;101261.56;2086746;28;1934;-64
2024/02/03 00:04:00;;;;;;;;;;;;;;;19.92;42.70;101259.31;2083635;28;1655;-64
2024/02/03 00:05:01;;;;;;;;;;;;;;;19.93;42.61;101260.78;2085790;28;2650;-63
2024/02/03 00:06:03;;;;;;;;;;;;;;;19.92;42.70;101260.03;2082126;28;1870;-64
2024/02/03 00:07:05;;;;;;;;;;;;;;;19.92;42.71;101260.03;2083353;28;1632;-63
2024/02/03 00:08:06;;;;;;;;;;;;;;;19.91;42.70;101255.69;2087995;28;1554;-64
2024/02/03 00:09:08;;;;;;;;;;;;;;;19.91;42.65;101267.19;2083886;28;2569;-63
2024/02/03 00:10:09;;;;;;;;;;;;;;;19.91;42.67;101261.44;2087239;28;2471;-64
2024/02/03 00:11:11;;;;;;;;;;;;;;;19.90;42.80;101259.94;2083961;28;2904;-64
2024/02/03 00:12:12;;;;;;;;;;;;;;;19.90;42.75;101256.31;2087488;28;1623;-64
2024/02/03 00:13:13;;;;;;;;;;;;;;;19.92;42.71;101259.31;2085223;28;1870;-64
2024/02/03 00:14:15;;;;;;;;;;;;;;;19.91;42.68;101261.44;2080883;28;2558;-64
2024/02/03 00:15:16;;;;;;;;;;;;;;;19.90;42.72;101270.69;2083395;28;2654;-64
2024/02/03 00:16:18;;;;;;;;;;;;;;;19.89;42.78;101261.31;2087040;28;1931;-63
2024/02/03 00:17:19;;;;;;;;;;;;;;;19.88;42.66;101262.69;2085216;28;1636;-63
2024/02/03 00:18:20;;;;;;;;;;;;;;;19.88;42.75;101257.72;2082748;28;1603;-63
2024/02/03 00:19:22;;;;;;;;;;;;;;;19.89;42.64;101255.56;2083807;28;2130;-63
2024/02/03 00:20:23;;;;;;;;;;;;;;;19.88;42.74;101254.06;2083114;28;2458;-63
2024/02/03 00:21:25;;;;;;;;;;;;;;;19.88;42.76;101251.19;2082652;28;2974;-64
2024/02/03 00:22:26;;;;;;;;;;;;;;;19.89;42.73;101255.56;2084883;28;1755;-63
2024/02/03 00:23:27;;;;;;;;;;;;;;;19.87;42.72;101249.72;2083216;28;1627;-64
2024/02/03 00:24:29;;;;;;;;;;;;;;;19.88;42.76;101242.56;2084939;28;1573;-64
2024/02/03 00:25:30;;;;;;;;;;;;;;;19.86;42.74;101257.59;2081394;28;2577;-64
2024/02/03 00:26:32;;;;;;;;;;;;;;;19.89;42.76;101249.81;2087501;28;1687;-63
2024/02/03 00:27:33;;;;;;;;;;;;;;;19.88;42.74;101245.44;2084206;28;2695;-63
2024/02/03 00:28:35;;;;;;;;;;;;;;;19.87;42.67;101259.06;2085729;28;1665;-64
2024/02/03 00:29:36;;;;;;;;;;;;;;;19.86;42.73;101257.59;2084798;28;2612;-63
2024/02/03 00:30:37;;;;;;;;;;;;;;;19.85;42.71;101252.47;2084722;28;6245;-64
2024/02/03 00:31:39;;;;;;;;;;;;;;;19.85;42.64;101255.34;2086826;28;2107;-63
2024/02/03 00:32:40;;;;;;;;;;;;;;;19.85;42.75;101255.34;2085822;28;2464;-64
2024/02/03 00:33:41;;;;;;;;;;;;;;;19.85;42.80;101258.22;2082278;28;1730;-63
2024/02/03 00:34:46;;;;;;;;;;;;;;;19.84;42.85;101248.13;2087831;28;1696;-63
2024/02/03 00:35:48;;;;;;;;;;;;;;;19.84;42.81;101253.88;2085415;28;1922;-63
2024/02/03 00:36:50;;;;;;;;;;;;;;;19.84;42.60;101254.59;2086601;28;2534;-64
2024/02/03 00:37:52;;;;;;;;;;;;;;;19.85;42.69;101256.09;2087529;28;2542;-63
2024/02/03 00:38:53;;;;;;;;;;;;;;;19.84;42.75;101253.88;2086263;28;2530;-63
2024/02/03 00:39:54;;;;;;;;;;;;;;;19.84;42.69;101253.88;2084138;28;2547;-64
2024/02/03 00:40:56;;;;;;;;;;;;;;;19.84;42.78;101251.72;2085756;28;1910;-63
2024/02/03 00:41:57;;;;;;;;;;;;;;;19.84;42.69;101256.75;2083796;28;2462;-63
2024/02/03 00:42:58;;;;;;;;;;;;;;;19.83;42.76;101258.84;2081835;28;2587;-63
2024/02/03 00:44:00;;;;;;;;;;;;;;;19.83;42.82;101260.97;2082985;28;1660;-63
2024/02/03 00:45:01;;;;;;;;;;;;;;;19.83;42.81;101264.59;2086306;28;1708;-64
2024/02/03 00:46:03;;;;;;;;;;;;;;;19.84;42.84;101271.09;2084178;28;2622;-64
2024/02/03 00:47:04;;;;;;;;;;;;;;;19.84;42.71;101265.38;2083267;28;1842;-63
2024/02/03 00:48:06;;;;;;;;;;;;;;;19.83;42.83;101266.72;2085788;28;1660;-63
2024/02/03 00:49:07;;;;;;;;;;;;;;;19.83;42.85;101261.72;2085269;28;2559;-64
2024/02/03 00:50:14;;;;;;;;;;;;;;;19.82;42.84;101250.88;2084569;28;2623;-63
2024/02/03 00:51:15;;;;;;;;;;;;;;;19.82;42.80;101256.63;2083134;28;2527;-62
2024/02/03 00:52:17;;;;;;;;;;;;;;;19.82;42.71;101254.50;2084127;28;1630;-63
2024/02/03 00:53:18;;;;;;;;;;;;;;;19.82;42.80;101259.50;2084859;28;1703;-63
2024/02/03 00:54:20;;;;;;;;;;;;;;;19.81;42.87;101255.13;2086057;28;2417;-63
2024/02/03 00:55:21;;;;;;;;;;;;;;;19.81;42.77;101255.13;2087074;28;1825;-63
2024/02/03 00:56:23;;;;;;;;;;;;;;;19.79;42.92;101250.03;2084863;28;1740;-63
2024/02/03 00:57:24;;;;;;;;;;;;;;;19.80;42.80;101245.03;2085008;28;1555;-63
2024/02/03 00:58:25;;;;;;;;;;;;;;;19.79;42.98;101243.50;2089524;28;2628;-63
2024/02/03 00:59:27;;;;;;;;;;;;;;;19.80;42.77;101247.91;2093822;28;1569;-63
2024/02/03 01:00:28;;;;;;;;;;;;;;;19.81;42.80;101237.88;2085248;28;6080;-62
2024/02/03 01:01:31;;;;;;;;;;;;;;;19.80;42.81;101253.63;2087045;28;2344;-63
2024/02/03 01:02:32;;;;;;;;;;;;;;;19.79;42.77;101250.03;2087831;28;1507;-63
2024/02/03 01:03:34;;;;;;;;;;;;;;;19.79;42.85;101241.41;2085130;28;1802;-63
2024/02/03 01:04:35;;;;;;;;;;;;;;;19.79;42.90;101252.13;2084472;28;2539;-63
2024/02/03 01:05:39;;;;;;;;;;;;;;;19.79;42.79;101246.38;2086314;28;1559;-63
2024/02/03 01:06:40;;;;;;;;;;;;;;;19.79;42.91;101263.63;2085212;28;1767;-63
2024/02/03 01:07:41;;;;;;;;;;;;;;;19.78;42.91;101257.13;2087854;28;1750;-63
2024/02/03 01:08:44;;;;;;;;;;;;;;;19.78;42.72;101256.41;2083042;28;2614;-63
2024/02/03 01:09:45;;;;;;;;;;;;;;;19.78;42.88;101256.41;2086094;28;1806;-63
2024/02/03 01:10:47;;;;;;;;;;;;;;;19.77;42.84;101252.03;2086610;28;2581;-63
2024/02/03 01:11:48;;;;;;;;;;;;;;;19.76;42.92;101259.91;2082809;28;2511;-63
2024/02/03 01:12:50;;;;;;;;;;;;;;;19.76;42.92;101251.28;2082850;28;1848;-63
2024/02/03 01:13:51;;;;;;;;;;;;;;;19.77;42.79;101254.91;2084062;28;2753;-63
2024/02/03 01:14:53;;;;;;;;;;;;;;;19.77;42.96;101254.91;2084543;28;1641;-63
2024/02/03 01:15:54;;;;;;;;;;;;;;;19.76;42.90;101253.41;2083789;28;2654;-63
2024/02/03 01:16:56;;;;;;;;;;;;;;;19.75;42.97;101243.31;2085151;28;2559;-63
2024/02/03 01:17:57;;;;;;;;;;;;;;;19.75;42.95;101246.91;2082631;28;1810;-62
2024/02/03 01:18:58;;;;;;;;;;;;;;;19.76;42.83;101247.66;2084677;28;1722;-63
2024/02/03 01:20:00;;;;;;;;;;;;;;;19.76;42.87;101247.66;2082627;28;2496;-63
2024/02/03 01:21:01;;;;;;;;;;;;;;;19.75;42.83;101255.53;2086582;28;1977;-63
2024/02/03 01:22:03;;;;;;;;;;;;;;;19.74;42.97;101250.41;2084991;28;2359;-62
2024/02/03 01:23:04;;;;;;;;;;;;;;;19.75;42.83;101251.94;2086511;28;1599;-63
2024/02/03 01:24:05;;;;;;;;;;;;;;;19.75;42.99;101246.19;2084663;28;2606;-63
2024/02/03 01:25:07;;;;;;;;;;;;;;;19.75;43.03;101251.94;2085550;28;1714;-63
2024/02/03 01:26:08;;;;;;;;;;;;;;;19.75;42.93;101251.94;2085135;28;1749;-62
2024/02/03 01:27:10;;;;;;;;;;;;;;;19.75;42.83;101246.19;2085485;28;2532;-62
2024/02/03 01:28:11;;;;;;;;;;;;;;;19.74;42.91;101250.41;2084121;28;1678;-62
2024/02/03 01:29:12;;;;;;;;;;;;;;;19.75;42.63;101246.19;2085163;28;1563;-63
2024/02/03 01:30:14;;;;;;;;;;;;;;;19.74;42.87;101245.41;2085436;28;6257;-63
2024/02/03 01:31:15;;;;;;;;;;;;;;;19.74;42.88;101238.94;2085426;28;1821;-63
2024/02/03 01:32:16;;;;;;;;;;;;;;;19.74;42.86;101241.81;2085213;28;2332;-63
2024/02/03 01:33:18;;;;;;;;;;;;;;;19.71;42.87;101245.97;2085171;28;1508;-63
2024/02/03 01:34:19;;;;;;;;;;;;;;;19.74;42.83;101253.28;2085423;28;1659;-63
2024/02/03 01:35:21;;;;;;;;;;;;;;;19.73;42.86;101243.94;2085827;28;1837;-63
2024/02/03 01:36:22;;;;;;;;;;;;;;;19.73;42.92;101243.94;2085297;28;1509;-63
2024/02/03 01:37:25;;;;;;;;;;;;;;;19.73;42.92;101251.81;2083655;28;1960;-63
2024/02/03 01:38:27;;;;;;;;;;;;;;;19.72;42.95;101247.44;2085189;28;2579;-63
2024/02/03 01:39:28;;;;;;;;;;;;;;;19.72;42.96;101253.91;2087391;28;1567;-63
2024/02/03 01:40:29;;;;;;;;;;;;;;;19.72;42.98;101256.06;2085380;28;2609;-63
2024/02/03 01:41:31;;;;;;;;;;;;;;;19.73;42.90;101258.31;2083907;28;2592;-62
2024/02/03 01:42:32;;;;;;;;;;;;;;;19.74;42.90;101259.03;2086991;28;1512;-62
2024/02/03 01:43:33;;;;;;;;;;;;;;;19.73;42.93;101254.69;2084429;28;1770;-63
2024/02/03 01:44:36;;;;;;;;;;;;;;;19.73;42.94;101254.69;2085549;28;1587;-64
2024/02/03 01:45:37;;;;;;;;;;;;;;;19.73;42.91;101257.56;2086702;28;2534;-64
2024/02/03 01:46:39;;;;;;;;;;;;;;;19.72;42.97;101265.41;2087734;28;2796;-66
2024/02/03 01:47:41;;;;;;;;;;;;;;;19.71;42.91;101263.19;2086749;28;1580;-64
2024/02/03 01:48:42;;;;;;;;;;;;;;;19.72;42.98;101264.66;2085548;28;2658;-71
2024/02/03 01:49:44;;;;;;;;;;;;;;;19.71;42.94;101257.44;2088848;28;1590;-75
2024/02/03 01:50:48;;;;;;;;;;;;;;;19.71;42.97;101251.69;2083997;28;2767;-75
2024/02/03 01:51:49;;;;;;;;;;;;;;;19.69;43.02;101255.19;2085750;28;2333;-75
2024/02/03 01:52:51;;;;;;;;;;;;;;;19.70;42.98;101250.19;2087950;28;1646;-74
2024/02/03 01:53:53;;;;;;;;;;;;;;;19.69;42.95;101265.94;2086389;28;1806;-75
2024/02/03 01:54:54;;;;;;;;;;;;;;;19.70;42.98;101255.94;2086599;28;2628;-73
2024/02/03 01:55:56;;;;;;;;;;;;;;;19.70;43.00;101255.94;2087507;28;1666;-75
2024/02/03 01:56:58;;;;;;;;;;;;;;;19.69;43.00;101254.47;2086959;28;2581;-75
2024/02/03 01:58:01;;;;;;;;;;;;;;;19.69;42.98;101257.34;2087392;28;2597;-75
2024/02/03 01:59:03;;;;;;;;;;;;;;;19.70;42.96;101255.94;2088326;28;1809;-74
2024/02/03 02:00:05;;;;;;;;;;;;;;;19.69;42.96;101271.69;2086552;28;6166;-75
2024/02/03 02:01:07;;;;;;;;;;;;;;;19.70;42.95;101261.69;2086946;28;1918;-75
2024/02/03 02:02:08;;;;;;;;;;;;;;;19.71;42.94;101257.44;2082986;28;2360;-75
2024/02/03 02:03:10;;;;;;;;;;;;;;;19.69;43.00;101260.22;2084939;28;1662;-75
2024/02/03 02:04:12;;;;;;;;;;;;;;;19.68;42.93;101262.31;2087199;28;1615;-75
2024/02/03 02:05:13;;;;;;;;;;;;;;;19.69;42.92;101257.34;2086044;28;1659;-74
2024/02/03 02:06:15;;;;;;;;;;;;;;;19.67;42.84;101252.19;2086295;28;1863;-75
2024/02/03 02:07:16;;;;;;;;;;;;;;;19.67;42.97;101260.81;2085963;28;1913;-75
2024/02/03 02:08:19;;;;;;;;;;;;;;;19.67;42.97;101269.41;2085520;28;2644;-75
2024/02/03 02:09:21;;;;;;;;;;;;;;;19.67;42.95;101258.66;2088333;28;1585;-74
2024/02/03 02:10:22;;;;;;;;;;;;;;;19.66;43.03;101257.19;2086761;28;2573;-76
2024/02/03 02:11:24;;;;;;;;;;;;;;;19.66;42.88;101271.56;2085289;28;2567;-75
2024/02/03 02:12:25;;;;;;;;;;;;;;;19.65;43.00;101260.69;2086067;28;2518;-74
2024/02/03 02:13:27;;;;;;;;;;;;;;;19.66;42.83;101265.81;2086238;28;2603;-75
2024/02/03 02:14:28;;;;;;;;;;;;;;;19.66;42.94;101257.19;2084860;28;2557;-75
2024/02/03 02:15:30;;;;;;;;;;;;;;;19.66;42.96;101251.44;2085761;28;2627;-75
2024/02/03 02:16:31;;;;;;;;;;;;;;;19.66;42.99;101262.94;2085625;28;1652;-75
2024/02/03 02:17:33;;;;;;;;;;;;;;;19.65;42.98;101264.31;2088125;28;1620;-75
2024/02/03 02:18:34;;;;;;;;;;;;;;;19.66;42.98;101257.19;2084845;28;2543;-74
2024/02/03 02:19:36;;;;;;;;;;;;;;;19.65;42.94;101257.81;2087576;28;1672;-75
2024/02/03 02:20:38;;;;;;;;;;;;;;;19.66;42.94;101262.94;2085581;28;2747;-77
2024/02/03 02:21:39;;;;;;;;;;;;;;;19.66;42.95;101244.97;2086677;28;1918;-75
2024/02/03 02:22:41;;;;;;;;;;;;;;;19.64;43.10;101248.44;2083589;28;2175;-75
2024/02/03 02:23:42;;;;;;;;;;;;;;;19.64;42.96;101254.19;2087935;28;1661;-74
2024/02/03 02:24:43;;;;;;;;;;;;;;;19.63;42.93;101246.97;2086735;28;2897;-75
2024/02/03 02:25:45;;;;;;;;;;;;;;;19.64;43.07;101245.59;2083847;28;2789;-75
2024/02/03 02:26:46;;;;;;;;;;;;;;;19.65;43.07;101249.19;2086243;28;1578;-75
2024/02/03 02:27:48;;;;;;;;;;;;;;;19.64;42.96;101254.19;2085526;28;1920;-76
2024/02/03 02:28:53;;;;;;;;;;;;;;;19.69;42.88;101242.97;2083592;28;2745;-75
2024/02/03 02:29:55;;;;;;;;;;;;;;;19.67;42.84;101250.06;2082136;28;2344;-75
2024/02/03 02:30:56;;;;;;;;;;;;;;;19.66;42.87;101239.94;2080179;28;6062;-74
2024/02/03 02:31:58;;;;;;;;;;;;;;;19.65;43.01;101226.97;2084888;28;1940;-75
2024/02/03 02:33:00;;;;;;;;;;;;;;;19.63;42.83;101241.22;2085387;28;1878;-75
2024/02/03 02:34:01;;;;;;;;;;;;;;;19.63;43.01;101241.22;2085867;28;2563;-75
2024/02/03 02:35:03;;;;;;;;;;;;;;;19.62;43.01;101222.47;2086723;28;2519;-74
2024/02/03 02:36:04;;;;;;;;;;;;;;;19.64;43.03;101231.22;2085812;28;1961;-75
2024/02/03 02:37:05;;;;;;;;;;;;;;;19.63;42.85;101234.72;2086422;28;2096;-75
2024/02/03 02:38:07;;;;;;;;;;;;;;;19.63;43.01;101232.59;2087278;28;2603;-75
2024/02/03 02:39:09;;;;;;;;;;;;;;;19.63;43.00;101237.59;2083473;28;2568;-74
2024/02/03 02:40:11;;;;;;;;;;;;;;;19.63;42.94;101234.72;2083742;28;2567;-75
2024/02/03 02:41:13;;;;;;;;;;;;;;;19.62;42.90;101224.63;2082553;28;1628;-75
2024/02/03 02:42:15;;;;;;;;;;;;;;;19.62;42.95;101221.75;2083154;28;1997;-74
2024/02/03 02:43:16;;;;;;;;;;;;;;;19.61;42.98;101223.13;2083463;28;1921;-75
2024/02/03 02:44:17;;;;;;;;;;;;;;;19.62;42.95;101228.22;2086295;28;2542;-75
2024/02/03 02:45:19;;;;;;;;;;;;;;;19.61;42.94;101226.75;2084622;28;2796;-74
2024/02/03 02:46:25;;;;;;;;;;;;;;;19.62;42.86;101219.59;2085416;28;2577;-75
2024/02/03 02:47:27;;;;;;;;;;;;;;;19.60;42.93;101219.50;2085504;28;1715;-74
2024/02/03 02:48:28;;;;;;;;;;;;;;;19.60;42.94;101216.63;2085527;28;1629;-75
2024/02/03 02:49:30;;;;;;;;;;;;;;;19.60;42.93;101213.00;2085617;28;2505;-74
2024/02/03 02:50:31;;;;;;;;;;;;;;;19.61;43.01;101215.25;2085499;28;2527;-75
2024/02/03 02:51:33;;;;;;;;;;;;;;;19.60;42.95;101210.88;2087764;28;1735;-74
2024/02/03 02:52:34;;;;;;;;;;;;;;;19.60;43.03;101213.75;2087526;28;1552;-74
2024/02/03 02:53:36;;;;;;;;;;;;;;;19.59;42.89;101218.00;2086684;28;1648;-75
2024/02/03 02:54:37;;;;;;;;;;;;;;;19.60;42.96;101215.88;2083212;28;2575;-74
2024/02/03 02:55:39;;;;;;;;;;;;;;;19.61;42.85;101208.78;2087047;28;2626;-75
2024/02/03 02:56:40;;;;;;;;;;;;;;;19.61;42.93;101221.00;2087628;28;1605;-74
2024/02/03 02:57:41;;;;;;;;;;;;;;;19.60;42.96;101225.25;2086780;28;1596;-75
2024/02/03 02:58:43;;;;;;;;;;;;;;;19.61;43.02;101223.13;2082654;28;2186;-75
2024/02/03 02:59:44;;;;;;;;;;;;;;;19.60;42.95;101228.13;2084958;28;2432;-74
2024/02/03 03:00:45;;;;;;;;;;;;;;;19.59;43.02;101223.75;2085325;28;6117;-74
2024/02/03 03:01:47;;;;;;;;;;;;;;;19.59;42.94;101228.75;2087882;28;1987;-75
2024/02/03 03:02:49;;;;;;;;;;;;;;;19.59;43.05;101223.03;2086706;28;2633;-75
2024/02/03 03:03:53;;;;;;;;;;;;;;;19.59;43.06;101223.03;2086845;28;1740;-75
2024/02/03 03:04:54;;;;;;;;;;;;;;;19.58;42.96;101228.00;2086482;28;1641;-75
2024/02/03 03:05:56;;;;;;;;;;;;;;;19.58;42.96;101218.63;2083892;28;1724;-74
2024/02/03 03:06:58;;;;;;;;;;;;;;;19.59;42.95;101229.50;2086057;28;2747;-74
2024/02/03 03:07:59;;;;;;;;;;;;;;;19.57;43.11;101226.50;2084775;28;2068;-75
2024/02/03 03:09:01;;;;;;;;;;;;;;;19.58;42.94;101222.25;2084295;28;1878;-74
2024/02/03 03:10:02;;;;;;;;;;;;;;;19.59;42.97;101223.03;2084503;28;2576;-75
2024/02/03 03:11:04;;;;;;;;;;;;;;;19.58;42.96;101222.25;2086638;28;2481;-74
2024/02/03 03:12:05;;;;;;;;;;;;;;;19.57;42.91;101217.91;2086296;28;1883;-75
2024/02/03 03:13:07;;;;;;;;;;;;;;;19.58;43.02;101228.00;2084722;28;2614;-74
2024/02/03 03:14:08;;;;;;;;;;;;;;;19.57;42.99;101238.00;2084491;28;2530;-75
2024/02/03 03:15:09;;;;;;;;;;;;;;;19.57;42.93;101220.78;2089101;28;2707;-75
2024/02/03 03:16:11;;;;;;;;;;;;;;;19.58;42.88;101228.00;2086516;28;2661;-75
2024/02/03 03:17:12;;;;;;;;;;;;;;;19.59;42.92;101225.91;2081707;28;3048;-75
2024/02/03 03:18:13;;;;;;;;;;;;;;;19.57;42.87;101238.00;2088571;28;1652;-75
2024/02/03 03:19:15;;;;;;;;;;;;;;;19.57;42.99;101229.38;2087755;28;1692;-75
2024/02/03 03:20:16;;;;;;;;;;;;;;;19.57;43.00;101223.66;2085468;28;2518;-75
2024/02/03 03:21:18;;;;;;;;;;;;;;;19.58;42.88;101227.25;2085234;28;1639;-74
2024/02/03 03:22:19;;;;;;;;;;;;;;;19.57;42.97;101228.66;2086378;28;1995;-75
2024/02/03 03:23:21;;;;;;;;;;;;;;;19.56;42.94;101227.91;2084714;28;1870;-75
2024/02/03 03:24:22;;;;;;;;;;;;;;;19.56;42.91;101224.28;2085958;28;2037;-75
2024/02/03 03:25:24;;;;;;;;;;;;;;;19.56;42.96;101218.53;2084010;28;2547;-75
2024/02/03 03:26:26;;;;;;;;;;;;;;;19.57;42.97;101234.41;2086240;28;2563;-76
2024/02/03 03:27:27;;;;;;;;;;;;;;;19.57;42.95;101231.53;2086712;28;2028;-75
2024/02/03 03:28:28;;;;;;;;;;;;;;;19.55;43.02;101226.41;2087683;28;1703;-75
2024/02/03 03:29:30;;;;;;;;;;;;;;;19.56;42.98;101230.78;2084589;28;2350;-75
2024/02/03 03:30:31;;;;;;;;;;;;;;;19.56;42.99;101221.41;2086156;28;6247;-75
2024/02/03 03:31:33;;;;;;;;;;;;;;;19.56;42.97;101225.03;2087541;28;1696;-75
2024/02/03 03:32:34;;;;;;;;;;;;;;;19.55;42.84;101229.28;2084119;28;1601;-75
2024/02/03 03:33:35;;;;;;;;;;;;;;;19.55;42.98;101226.41;2084497;28;2499;-75
2024/02/03 03:34:37;;;;;;;;;;;;;;;19.54;42.96;101233.53;2085064;28;2095;-75
2024/02/03 03:35:39;;;;;;;;;;;;;;;19.54;42.93;101222.06;2085893;28;1632;-75
2024/02/03 03:36:40;;;;;;;;;;;;;;;19.55;42.95;101223.53;2085448;28;2628;-75
2024/02/03 03:37:41;;;;;;;;;;;;;;;19.54;43.04;101233.53;2086772;28;1621;-75
2024/02/03 03:38:43;;;;;;;;;;;;;;;19.56;43.03;101224.28;2086049;28;2088;-75
2024/02/03 03:39:45;;;;;;;;;;;;;;;19.55;43.03;101229.28;2085805;28;1664;-74
2024/02/03 03:40:47;;;;;;;;;;;;;;;19.55;43.01;101223.53;2082786;28;2569;-75
2024/02/03 03:41:48;;;;;;;;;;;;;;;19.55;42.93;101217.78;2085724;28;2199;-75
2024/02/03 03:42:50;;;;;;;;;;;;;;;19.57;42.97;101226.50;2085516;28;1918;-72
2024/02/03 03:43:51;;;;;;;;;;;;;;;19.57;43.00;101226.50;2082495;28;2216;-75
2024/02/03 03:44:52;;;;;;;;;;;;;;;19.57;42.90;101220.03;2085829;28;2803;-75
2024/02/03 03:45:55;;;;;;;;;;;;;;;19.57;42.93;101223.66;2083516;28;2523;-75
2024/02/03 03:46:56;;;;;;;;;;;;;;;19.58;42.91;101218.63;2087075;28;1751;-74
2024/02/03 03:47:58;;;;;;;;;;;;;;;19.58;42.81;101219.38;2086829;28;1775;-75
2024/02/03 03:48:59;;;;;;;;;;;;;;;19.58;42.93;101219.38;2083917;28;1882;-75
2024/02/03 03:50:01;;;;;;;;;;;;;;;19.59;42.87;101212.28;2083575;28;1941;-75
2024/02/03 03:51:02;;;;;;;;;;;;;;;19.61;42.83;101223.88;2085188;28;2344;-74
2024/02/03 03:52:04;;;;;;;;;;;;;;;19.61;42.79;101223.88;2086808;28;2565;-75
2024/02/03 03:53:05;;;;;;;;;;;;;;;19.61;42.66;101223.88;2087353;28;1913;-75
2024/02/03 03:54:07;;;;;;;;;;;;;;;19.62;42.79;101225.34;2086718;28;1720;-75
2024/02/03 03:55:08;;;;;;;;;;;;;;;19.62;42.77;101222.47;2082199;28;2543;-74
2024/02/03 03:56:10;;;;;;;;;;;;;;;19.62;42.74;101222.47;2087832;28;2637;-75
2024/02/03 03:57:11;;;;;;;;;;;;;;;19.64;42.75;101218.97;2087061;28;1724;-75
2024/02/03 03:58:12;;;;;;;;;;;;;;;19.64;42.62;101219.72;2086166;28;1701;-75
2024/02/03 03:59:14;;;;;;;;;;;;;;;19.63;42.71;101212.50;2084136;28;2606;-75
2024/02/03 04:00:15;;;;;;;;;;;;;;;19.64;42.69;101213.97;2084556;28;6064;-75
2024/02/03 04:01:16;;;;;;;;;;;;;;;19.65;42.75;101209.75;2085014;28;2460;-74
2024/02/03 04:02:18;;;;;;;;;;;;;;;19.65;42.70;101215.47;2085137;28;1984;-75
2024/02/03 04:03:20;;;;;;;;;;;;;;;19.64;42.62;101213.97;2084378;28;1700;-75
2024/02/03 04:04:21;;;;;;;;;;;;;;;19.64;42.69;101216.84;2083840;28;2589;-75
2024/02/03 04:05:22;;;;;;;;;;;;;;;19.65;42.63;101214.72;2084071;28;2625;-75
2024/02/03 04:06:24;;;;;;;;;;;;;;;19.64;42.72;101230.47;2083389;28;1623;-75
2024/02/03 04:07:25;;;;;;;;;;;;;;;19.64;42.77;101225.47;2087905;28;1722;-75
2024/02/03 04:08:26;;;;;;;;;;;;;;;19.64;42.59;101222.59;2085961;28;2553;-75
2024/02/03 04:09:28;;;;;;;;;;;;;;;19.65;42.79;101220.47;2086741;28;1643;-75
2024/02/03 04:10:29;;;;;;;;;;;;;;;19.63;42.69;101220.34;2086269;28;2506;-75
2024/02/03 04:11:31;;;;;;;;;;;;;;;19.64;42.77;101213.97;2084466;28;2530;-75
2024/02/03 04:12:32;;;;;;;;;;;;;;;19.64;42.84;101219.72;2084687;28;1856;-75
2024/02/03 04:13:33;;;;;;;;;;;;;;;19.64;42.80;101231.22;2081735;28;1599;-75
2024/02/03 04:14:35;;;;;;;;;;;;;;;19.65;42.83;101224.09;2084029;28;2542;-75
2024/02/03 04:15:36;;;;;;;;;;;;;;;19.64;42.83;101219.72;2086653;28;2539;-74
2024/02/03 04:16:37;;;;;;;;;;;;;;;19.63;42.85;101224.00;2085646;28;1722;-75
2024/02/03 04:17:39;;;;;;;;;;;;;;;19.63;42.86;101221.13;2086063;28;1612;-75
2024/02/03 04:18:40;;;;;;;;;;;;;;;19.64;42.81;101227.59;2083343;28;1856;-75
2024/02/03 04:19:42;;;;;;;;;;;;;;;19.63;42.83;101229.75;2087071;28;2561;-75
2024/02/03 04:20:43;;;;;;;;;;;;;;;19.64;42.83;101228.34;2086638;28;2406;-75
2024/02/03 04:21:45;;;;;;;;;;;;;;;19.65;42.76;101221.22;2085501;28;1520;-74
2024/02/03 04:22:46;;;;;;;;;;;;;;;19.65;42.79;101229.84;2086060;28;1977;-75
2024/02/03 04:23:48;;;;;;;;;;;;;;;19.65;42.81;101221.22;2082150;28;2546;-74
2024/02/03 04:24:49;;;;;;;;;;;;;;;19.66;42.81;101221.97;2085093;28;2642;-75
2024/02/03 04:25:51;;;;;;;;;;;;;;;19.66;42.84;101222.72;2087682;28;1599;-75
2024/02/03 04:26:52;;;;;;;;;;;;;;;19.66;42.76;101225.59;2087325;28;1602;-75
2024/02/03 04:27:54;;;;;;;;;;;;;;;19.67;42.69;101229.19;2085081;28;1540;-74
2024/02/03 04:28:55;;;;;;;;;;;;;;;19.67;42.75;101229.94;2083665;28;2600;-74
2024/02/03 04:29:56;;;;;;;;;;;;;;;19.67;42.81;101211.97;2085238;28;1672;-75
2024/02/03 04:30:58;;;;;;;;;;;;;;;19.69;42.79;101217.09;2081346;28;6250;-75
2024/02/03 04:32:00;;;;;;;;;;;;;;;19.69;42.80;101217.84;2085792;28;1855;-74
2024/02/03 04:33:01;;;;;;;;;;;;;;;19.70;42.79;101221.47;2087626;28;1703;-75
2024/02/03 04:34:04;;;;;;;;;;;;;;;19.69;42.76;101222.84;2084821;28;1676;-75
2024/02/03 04:35:06;;;;;;;;;;;;;;;19.71;42.77;101220.09;2086777;28;2777;-75
2024/02/03 04:36:07;;;;;;;;;;;;;;;19.70;42.75;101207.88;2084354;28;2595;-75
2024/02/03 04:37:08;;;;;;;;;;;;;;;19.71;42.80;101211.47;2084648;28;1771;-75
2024/02/03 04:38:10;;;;;;;;;;;;;;;19.71;42.81;101214.34;2084241;28;1672;-75
2024/02/03 04:39:11;;;;;;;;;;;;;;;19.71;42.79;101217.22;2086444;28;2094;-75
2024/02/03 04:40:12;;;;;;;;;;;;;;;19.70;42.83;101213.59;2089013;28;2478;-75
2024/02/03 04:41:21;;;;;;;;;;;;;;;19.71;42.85;101211.47;2087232;28;2226;-75
2024/02/03 04:42:23;;;;;;;;;;;;;;;19.72;42.82;101212.94;2083891;28;1899;-75
2024/02/03 04:43:24;;;;;;;;;;;;;;;19.71;42.66;101220.09;2085811;28;1898;-75
2024/02/03 04:44:25;;;;;;;;;;;;;;;19.71;42.79;101211.47;2082380;28;2701;-75
2024/02/03 04:45:27;;;;;;;;;;;;;;;19.70;42.71;101216.47;2085750;28;2550;-75
2024/02/03 04:46:28;;;;;;;;;;;;;;;19.69;42.73;101209.22;2085281;28;1635;-75
2024/02/03 04:47:29;;;;;;;;;;;;;;;19.70;42.77;101213.59;2085769;28;1686;-75
2024/02/03 04:48:31;;;;;;;;;;;;;;;19.70;42.80;101209.97;2086865;28;1755;-75
2024/02/03 04:49:32;;;;;;;;;;;;;;;19.70;42.84;101201.34;2085327;28;2459;-75
2024/02/03 04:50:34;;;;;;;;;;;;;;;19.70;42.79;101212.84;2087714;28;1728;-75
2024/02/03 04:51:35;;;;;;;;;;;;;;;19.70;42.77;101209.97;2087856;28;2383;-75
2024/02/03 04:52:37;;;;;;;;;;;;;;;19.69;42.84;101208.50;2083701;28;1932;-75
2024/02/03 04:53:39;;;;;;;;;;;;;;;19.70;42.90;101210.75;2084922;28;2551;-75
2024/02/03 04:54:40;;;;;;;;;;;;;;;19.69;42.89;101209.22;2082518;28;1632;-75
2024/02/03 04:55:42;;;;;;;;;;;;;;;19.69;42.89;101211.38;2084278;28;2617;-75
2024/02/03 04:56:43;;;;;;;;;;;;;;;19.69;42.84;101209.22;2080966;28;1806;-75
2024/02/03 04:57:44;;;;;;;;;;;;;;;19.67;42.91;101212.69;2085114;28;1624;-75
2024/02/03 04:58:46;;;;;;;;;;;;;;;19.68;42.93;101213.47;2085178;28;2425;-75
2024/02/03 04:59:47;;;;;;;;;;;;;;;19.68;42.82;101207.72;2083053;28;2700;-75
2024/02/03 05:00:48;;;;;;;;;;;;;;;19.68;42.99;101204.84;2084275;28;6000;-75
2024/02/03 05:01:50;;;;;;;;;;;;;;;19.68;42.89;101207.72;2086392;28;2458;-75
2024/02/03 05:02:52;;;;;;;;;;;;;;;19.67;42.89;101209.81;2086815;28;1914;-75
2024/02/03 05:03:53;;;;;;;;;;;;;;;19.66;43.05;101205.47;2084056;28;2601;-74
2024/02/03 05:04:54;;;;;;;;;;;;;;;19.66;43.11;101211.22;2083972;28;1793;-75
2024/02/03 05:05:56;;;;;;;;;;;;;;;19.67;43.06;101206.94;2083207;28;1586;-75
2024/02/03 05:06:57;;;;;;;;;;;;;;;19.65;43.11;101215.47;2087111;28;1569;-74
2024/02/03 05:07:59;;;;;;;;;;;;;;;19.65;43.00;101215.47;2084955;28;2650;-76
2024/02/03 05:09:00;;;;;;;;;;;;;;;19.65;43.14;101215.47;2088809;28;1508;-75
2024/02/03 05:10:02;;;;;;;;;;;;;;;19.65;43.12;101215.47;2086870;28;1844;-75
2024/02/03 05:11:05;;;;;;;;;;;;;;;19.65;43.20;101221.22;2086033;28;2607;-75
2024/02/03 05:12:06;;;;;;;;;;;;;;;19.66;43.17;101216.97;2087505;28;1639;-75
2024/02/03 05:13:08;;;;;;;;;;;;;;;19.66;43.09;101216.97;2088803;28;1833;-75
2024/02/03 05:14:09;;;;;;;;;;;;;;;19.66;43.05;101208.34;2086542;28;2589;-75
2024/02/03 05:15:10;;;;;;;;;;;;;;;19.67;42.99;101211.97;2087117;28;2538;-75
2024/02/03 05:16:12;;;;;;;;;;;;;;;19.67;42.98;101217.72;2088817;28;2504;-74
2024/02/03 05:17:13;;;;;;;;;;;;;;;19.67;42.97;101212.69;2087315;28;1596;-75
2024/02/03 05:18:15;;;;;;;;;;;;;;;19.69;42.92;101217.09;2084176;28;1614;-75
2024/02/03 05:19:17;;;;;;;;;;;;;;;19.70;42.94;101218.59;2086395;28;2562;-75
2024/02/03 05:20:19;;;;;;;;;;;;;;;19.70;42.83;101209.97;2088193;28;1824;-75
2024/02/03 05:21:20;;;;;;;;;;;;;;;19.72;42.82;101224.44;2087050;28;2050;-75